Buoy 46533

sailwx.info

Track history (hours):
 
Tides and Currents Weather Stations Pressure Air Temp Water Temp Dewpoint Dewpoint Depression Visibility Wind Speed Wind Dir Waves Ship Positions

Drifting buoy 46533

Last reported at 2014-Oct-14 01:20 UTC. Time now 2014-Dec-18 12:30 UTC.
Position N 51°40' E 159°01'.
Warning: this ship's position is months out of date.

Barometer 1008.7 mb
Water temperature 9.2 ° C

Date/timePositionNaut miles runAvg speedWind from/ knotsBaromVisibWave heightAir tempDewpointWater temp
2014-Oct-14 01:20N 51°40' E 159°01'1 0.5 1008.7 9.2
2014-Oct-13 23:20N 51°40' E 158°60'1 0.4 1008.3 9.2
2014-Oct-13 21:20N 51°41' E 159°01'6 0.7 1008.1 9.2
2014-Oct-13 13:20N 51°46' E 158°57'1 0.2 1006.0 9.2
2014-Oct-13 09:20N 51°46' E 158°56'2 0.9 1006.9 9.2
2014-Oct-13 07:20N 51°48' E 158°55'1 0.3 1007.1 9.1
2014-Oct-13 03:20N 51°48' E 158°53'2 1.6 1008.3 9.0
2014-Oct-13 02:20N 51°50' E 158°51'0 0.0 1009.7 9.0
2014-Oct-13 00:20N 51°50' E 158°51'0 0.3 1012.5 9.0
2014-Oct-12 23:20N 51°49' E 158°52'1 1.1 1013.8 9.0
2014-Oct-12 22:20N 51°51' E 158°52'0 0.1 1015.1 9.0
2014-Oct-12 20:20N 51°51' E 158°52'1 0.4 1017.0 9.0
2014-Oct-12 17:20N 51°52' E 158°53'0 0.1 1019.2 9.0
2014-Oct-12 15:20N 51°52' E 158°52'1 0.8 1020.3 9.0
2014-Oct-12 14:20N 51°53' E 158°53'3 0.4 1020.8 9.0
2014-Oct-12 07:20N 51°56' E 158°53'0 0.0 1022.9 9.2
2014-Oct-12 05:20N 51°56' E 158°53'1 0.6 1022.8 9.4
2014-Oct-12 03:20N 51°56' E 158°54'1 0.4 1023.0 9.5
2014-Oct-12 01:20N 51°57' E 158°54'0 0.0 1024.1 9.1
2014-Oct-12 00:20N 51°57' E 158°54'1 1.0 1024.4 9.0
2014-Oct-11 23:20N 51°58' E 158°56'2 0.6 1024.7 8.9
2014-Oct-11 20:20N 51°60' E 158°55'0 0.0 1024.9 8.9
2014-Oct-11 19:20N 51°60' E 158°55'1 0.3 1024.8 8.9
2014-Oct-11 17:20N 52°00' E 158°56'1 0.6 1024.4 8.9
2014-Oct-11 16:20N 52°01' E 158°56'2 0.6 1024.5 8.9
2014-Oct-11 13:20N 52°02' E 158°57'1 0.3 1024.8 9.0
2014-Oct-11 08:20N 52°04' E 158°58'2 0.8 1024.5 9.0
2014-Oct-11 06:20N 52°05' E 158°58'1 0.3 1024.1 9.1
2014-Oct-11 04:20N 52°06' E 158°59'1 0.7 1024.0 9.1
2014-Oct-11 03:20N 52°06' E 158°59'0 0.0 1023.8 9.1
2014-Oct-11 02:20N 52°06' E 158°59'0 0.4 1023.9 9.1
2014-Oct-11 01:20N 52°07' E 158°59'3 0.4 1024.2 9.0
2014-Oct-10 18:20N 52°10' E 159°01'1 0.9 1023.8 9.1
2014-Oct-10 17:20N 52°11' E 159°01'0 0.0 1023.6 9.1
2014-Oct-10 16:20N 52°11' E 159°01'3 0.8 1023.7 9.1
2014-Oct-10 13:20N 52°13' E 159°03'0 0.0 1024.0 9.1
2014-Oct-10 10:20N 52°13' E 159°03'1 0.5 1024.2 9.1
2014-Oct-10 08:20N 52°14' E 159°02'2 0.7 1024.2 9.1
2014-Oct-10 05:20N 52°15' E 159°03'1 0.3 1023.4 9.2
2014-Oct-10 02:20N 52°16' E 159°03'1 0.7 1022.8 9.2
2014-Oct-10 01:20N 52°17' E 159°03'0 0.2 1022.7 9.2
2014-Oct-10 00:20N 52°17' E 159°03'1 1.5 1023.0 9.2
2014-Oct-09 23:20N 52°19' E 159°04'0 0.0 1022.9 9.2
2014-Oct-09 22:20N 52°19' E 159°04'2 0.3 1022.4 9.2
2014-Oct-09 16:20N 52°20' E 159°06'2 0.9 1019.9 9.2
2014-Oct-09 14:20N 52°22' E 159°07'0 0.0 1019.4 9.2
2014-Oct-09 13:20N 52°22' E 159°07'0 0.0 1018.5 9.2
2014-Oct-09 10:20N 52°22' E 159°07'1 0.3 1017.6 9.2
2014-Oct-09 07:20N 52°22' E 159°07'1 0.2 1016.0 9.3
2014-Oct-09 02:20N 52°23' E 159°09'1 1.5 1014.2 9.4
2014-Oct-09 01:20N 52°24' E 159°10'1 0.8 1013.8 9.4
2014-Oct-09 00:20N 52°25' E 159°11'0 0.0 1013.5 9.4
2014-Oct-08 22:20N 52°25' E 159°11'1 0.2 1013.4 9.5
2014-Oct-08 19:20N 52°25' E 159°12'0 0.0 1012.5 9.5
2014-Oct-08 18:20N 52°25' E 159°12'0 0.1 1012.1 9.5
2014-Oct-08 16:20N 52°25' E 159°11'1 1.4 1011.8 6.4
2014-Oct-08 15:20N 52°26' E 159°13'0 0.0 1011.6 9.5
2014-Oct-08 14:20N 52°26' E 159°13'2 0.4 1011.2 9.5
2014-Oct-08 08:20N 52°26' E 159°17'0 0.0 1009.8 9.6
2014-Oct-08 04:20N 52°26' E 159°17'3 1.7 1007.8 9.5
2014-Oct-08 02:20N 52°25' E 159°22'0 0.0 1007.4 9.5
2014-Oct-08 00:20N 52°25' E 159°22'2 1.0 1007.4 9.5
2014-Oct-07 22:20N 52°26' E 159°26'0 0.0 1007.5 9.5
2014-Oct-07 20:20N 52°26' E 159°26'0 0.0 1006.1 9.5
2014-Oct-07 18:20N 52°26' E 159°26'6 3.0 1004.5 9.5
2014-Oct-07 16:20N 52°22' E 159°34'1 0.2 1003.1 9.5
2014-Oct-07 11:20N 52°22' E 159°35'1 0.9 1002.4 9.6
2014-Oct-07 10:20N 52°23' E 159°37'0 0.0 1002.6 9.6
2014-Oct-07 09:20N 52°23' E 159°37'2 0.4 1002.6 9.6
2014-Oct-07 05:20N 52°23' E 159°39'0 0.0 1001.2 9.7
2014-Oct-07 04:20N 52°23' E 159°39'0 0.5 1000.5 9.7
2014-Oct-07 03:20N 52°23' E 159°39'1 1.3 1000.4 9.7
2014-Oct-07 02:20N 52°22' E 159°39'5 1.6 1000.7 9.7
2014-Oct-06 23:20N 52°20' E 159°46'3 0.9 1001.5 9.7
2014-Oct-06 20:20N 52°21' E 159°50'0 0.0 1001.4 9.7
2014-Oct-06 19:20N 52°21' E 159°50'0 0.0 1000.9 9.7
2014-Oct-06 18:20N 52°21' E 159°50'1 0.6 1000.1 9.7
2014-Oct-06 17:20N 52°22' E 159°51'1 1.3 1000.3 9.7
2014-Oct-06 16:20N 52°23' E 159°52'0 0.0 1000.4 9.7
2014-Oct-06 13:20N 52°23' E 159°52'1 0.3 999.5 9.8
2014-Oct-06 09:20N 52°22' E 159°54'7 7.4 997.8 9.8
2014-Oct-06 08:20N 52°23' E 160°05'0 0.0 997.0 9.8
2014-Oct-06 06:20N 52°23' E 160°05'0 0.0 994.7 9.9
2014-Oct-06 04:20N 52°23' E 160°05'0 0.0 992.2 9.9
2014-Oct-06 02:20N 52°23' E 160°05'6 1.9 990.8 10.0
2014-Oct-05 23:20N 52°27' E 160°12'0 0.0 988.3 10.0
2014-Oct-05 22:20N 52°27' E 160°12'1 0.5 987.0 10.0
2014-Oct-05 20:20N 52°27' E 160°14'0 0.3 984.6 10.1
2014-Oct-05 19:20N 52°27' E 160°13'2 2.0 983.6 10.1
2014-Oct-05 18:20N 52°27' E 160°16'1 0.5 982.9 10.1
2014-Oct-05 16:20N 52°27' E 160°18'10 1.3 980.7 10.1
2014-Oct-05 08:20N 52°33' E 160°32'2 1.2 973.6 10.3
2014-Oct-05 06:20N 52°35' E 160°35'2 0.6 973.9 10.3
2014-Oct-05 03:20N 52°36' E 160°37'2 1.1 976.0 10.3
2014-Oct-05 01:20N 52°37' E 160°40'3 1.6 979.2 10.3
2014-Oct-04 23:20N 52°39' E 160°43'3 0.7 983.1 10.3
2014-Oct-04 19:20N 52°42' E 160°45'1 0.5 991.0 10.3
2014-Oct-04 17:20N 52°43' E 160°45'1 0.5 995.0 10.4
2014-Oct-04 15:20N 52°44' E 160°46'2 0.4 999.5 10.4
2014-Oct-04 11:20N 52°45' E 160°48'3 0.9 1006.1 10.4
2014-Oct-04 08:20N 52°47' E 160°50'0 0.0 1010.0 10.4
2014-Oct-04 07:20N 52°47' E 160°50'4 1.0 1010.8 10.4
2014-Oct-04 03:20N 52°51' E 160°50'0 0.3 1014.8 10.4
2014-Oct-04 02:20N 52°52' E 160°50'1 1.3 1015.7 10.4
2014-Oct-04 01:20N 52°53' E 160°50'   1016.8 10.4
Track history (hours):
 
Tides and Currents Weather Stations Pressure Air Temp Water Temp Dewpoint Dewpoint Depression Visibility Wind Speed Wind Dir Waves Ship Positions

Drifting buoy 46533

Last reported at 2014-Oct-14 01:20 UTC. Time now 2014-Dec-18 12:30 UTC.
Position N 51°40' E 159°01'.
Warning: this ship's position is months out of date.

Barometer 1008.7 mb
Water temperature 9.2 ° C

Date/timePositionNaut miles runAvg speedWind from/ knotsBaromVisibWave heightAir tempDewpointWater temp
2014-Oct-14 01:20N 51°40' E 159°01'1 0.5 1008.7 9.2
2014-Oct-13 23:20N 51°40' E 158°60'1 0.4 1008.3 9.2
2014-Oct-13 21:20N 51°41' E 159°01'6 0.7 1008.1 9.2
2014-Oct-13 13:20N 51°46' E 158°57'1 0.2 1006.0 9.2
2014-Oct-13 09:20N 51°46' E 158°56'2 0.9 1006.9 9.2
2014-Oct-13 07:20N 51°48' E 158°55'1 0.3 1007.1 9.1
2014-Oct-13 03:20N 51°48' E 158°53'2 1.6 1008.3 9.0
2014-Oct-13 02:20N 51°50' E 158°51'0 0.0 1009.7 9.0
2014-Oct-13 00:20N 51°50' E 158°51'0 0.3 1012.5 9.0
2014-Oct-12 23:20N 51°49' E 158°52'1 1.1 1013.8 9.0
2014-Oct-12 22:20N 51°51' E 158°52'0 0.1 1015.1 9.0
2014-Oct-12 20:20N 51°51' E 158°52'1 0.4 1017.0 9.0
2014-Oct-12 17:20N 51°52' E 158°53'0 0.1 1019.2 9.0
2014-Oct-12 15:20N 51°52' E 158°52'1 0.8 1020.3 9.0
2014-Oct-12 14:20N 51°53' E 158°53'3 0.4 1020.8 9.0
2014-Oct-12 07:20N 51°56' E 158°53'0 0.0 1022.9 9.2
2014-Oct-12 05:20N 51°56' E 158°53'1 0.6 1022.8 9.4
2014-Oct-12 03:20N 51°56' E 158°54'1 0.4 1023.0 9.5
2014-Oct-12 01:20N 51°57' E 158°54'0 0.0 1024.1 9.1
2014-Oct-12 00:20N 51°57' E 158°54'1 1.0 1024.4 9.0
2014-Oct-11 23:20N 51°58' E 158°56'2 0.6 1024.7 8.9
2014-Oct-11 20:20N 51°60' E 158°55'0 0.0 1024.9 8.9
2014-Oct-11 19:20N 51°60' E 158°55'1 0.3 1024.8 8.9
2014-Oct-11 17:20N 52°00' E 158°56'1 0.6 1024.4 8.9
2014-Oct-11 16:20N 52°01' E 158°56'2 0.6 1024.5 8.9
2014-Oct-11 13:20N 52°02' E 158°57'1 0.3 1024.8 9.0
2014-Oct-11 08:20N 52°04' E 158°58'2 0.8 1024.5 9.0
2014-Oct-11 06:20N 52°05' E 158°58'1 0.3 1024.1 9.1
2014-Oct-11 04:20N 52°06' E 158°59'1 0.7 1024.0 9.1
2014-Oct-11 03:20N 52°06' E 158°59'0 0.0 1023.8 9.1
2014-Oct-11 02:20N 52°06' E 158°59'0 0.4 1023.9 9.1
2014-Oct-11 01:20N 52°07' E 158°59'3 0.4 1024.2 9.0
2014-Oct-10 18:20N 52°10' E 159°01'1 0.9 1023.8 9.1
2014-Oct-10 17:20N 52°11' E 159°01'0 0.0 1023.6 9.1
2014-Oct-10 16:20N 52°11' E 159°01'3 0.8 1023.7 9.1
2014-Oct-10 13:20N 52°13' E 159°03'0 0.0 1024.0 9.1
2014-Oct-10 10:20N 52°13' E 159°03'1 0.5 1024.2 9.1
2014-Oct-10 08:20N 52°14' E 159°02'2 0.7 1024.2 9.1
2014-Oct-10 05:20N 52°15' E 159°03'1 0.3 1023.4 9.2
2014-Oct-10 02:20N 52°16' E 159°03'1 0.7 1022.8 9.2
2014-Oct-10 01:20N 52°17' E 159°03'0 0.2 1022.7 9.2
2014-Oct-10 00:20N 52°17' E 159°03'1 1.5 1023.0 9.2
2014-Oct-09 23:20N 52°19' E 159°04'0 0.0 1022.9 9.2
2014-Oct-09 22:20N 52°19' E 159°04'2 0.3 1022.4 9.2
2014-Oct-09 16:20N 52°20' E 159°06'2 0.9 1019.9 9.2
2014-Oct-09 14:20N 52°22' E 159°07'0 0.0 1019.4 9.2
2014-Oct-09 13:20N 52°22' E 159°07'0 0.0 1018.5 9.2
2014-Oct-09 10:20N 52°22' E 159°07'1 0.3 1017.6 9.2
2014-Oct-09 07:20N 52°22' E 159°07'1 0.2 1016.0 9.3
2014-Oct-09 02:20N 52°23' E 159°09'1 1.5 1014.2 9.4
2014-Oct-09 01:20N 52°24' E 159°10'1 0.8 1013.8 9.4
2014-Oct-09 00:20N 52°25' E 159°11'0 0.0 1013.5 9.4
2014-Oct-08 22:20N 52°25' E 159°11'1 0.2 1013.4 9.5
2014-Oct-08 19:20N 52°25' E 159°12'0 0.0 1012.5 9.5
2014-Oct-08 18:20N 52°25' E 159°12'0 0.1 1012.1 9.5
2014-Oct-08 16:20N 52°25' E 159°11'1 1.4 1011.8 6.4
2014-Oct-08 15:20N 52°26' E 159°13'0 0.0 1011.6 9.5
2014-Oct-08 14:20N 52°26' E 159°13'2 0.4 1011.2 9.5
2014-Oct-08 08:20N 52°26' E 159°17'0 0.0 1009.8 9.6
2014-Oct-08 04:20N 52°26' E 159°17'3 1.7 1007.8 9.5
2014-Oct-08 02:20N 52°25' E 159°22'0 0.0 1007.4 9.5
2014-Oct-08 00:20N 52°25' E 159°22'2 1.0 1007.4 9.5
2014-Oct-07 22:20N 52°26' E 159°26'0 0.0 1007.5 9.5
2014-Oct-07 20:20N 52°26' E 159°26'0 0.0 1006.1 9.5
2014-Oct-07 18:20N 52°26' E 159°26'6 3.0 1004.5 9.5
2014-Oct-07 16:20N 52°22' E 159°34'1 0.2 1003.1 9.5
2014-Oct-07 11:20N 52°22' E 159°35'1 0.9 1002.4 9.6
2014-Oct-07 10:20N 52°23' E 159°37'0 0.0 1002.6 9.6
2014-Oct-07 09:20N 52°23' E 159°37'2 0.4 1002.6 9.6
2014-Oct-07 05:20N 52°23' E 159°39'0 0.0 1001.2 9.7
2014-Oct-07 04:20N 52°23' E 159°39'0 0.5 1000.5 9.7
2014-Oct-07 03:20N 52°23' E 159°39'1 1.3 1000.4 9.7
2014-Oct-07 02:20N 52°22' E 159°39'5 1.6 1000.7 9.7
2014-Oct-06 23:20N 52°20' E 159°46'3 0.9 1001.5 9.7
2014-Oct-06 20:20N 52°21' E 159°50'0 0.0 1001.4 9.7
2014-Oct-06 19:20N 52°21' E 159°50'0 0.0 1000.9 9.7
2014-Oct-06 18:20N 52°21' E 159°50'1 0.6 1000.1 9.7
2014-Oct-06 17:20N 52°22' E 159°51'1 1.3 1000.3 9.7
2014-Oct-06 16:20N 52°23' E 159°52'0 0.0 1000.4 9.7
2014-Oct-06 13:20N 52°23' E 159°52'1 0.3 999.5 9.8
2014-Oct-06 09:20N 52°22' E 159°54'7 7.4 997.8 9.8
2014-Oct-06 08:20N 52°23' E 160°05'0 0.0 997.0 9.8
2014-Oct-06 06:20N 52°23' E 160°05'0 0.0 994.7 9.9
2014-Oct-06 04:20N 52°23' E 160°05'0 0.0 992.2 9.9
2014-Oct-06 02:20N 52°23' E 160°05'6 1.9 990.8 10.0
2014-Oct-05 23:20N 52°27' E 160°12'0 0.0 988.3 10.0
2014-Oct-05 22:20N 52°27' E 160°12'1 0.5 987.0 10.0
2014-Oct-05 20:20N 52°27' E 160°14'0 0.3 984.6 10.1
2014-Oct-05 19:20N 52°27' E 160°13'2 2.0 983.6 10.1
2014-Oct-05 18:20N 52°27' E 160°16'1 0.5 982.9 10.1
2014-Oct-05 16:20N 52°27' E 160°18'10 1.3 980.7 10.1
2014-Oct-05 08:20N 52°33' E 160°32'2 1.2 973.6 10.3
2014-Oct-05 06:20N 52°35' E 160°35'2 0.6 973.9 10.3
2014-Oct-05 03:20N 52°36' E 160°37'2 1.1 976.0 10.3
2014-Oct-05 01:20N 52°37' E 160°40'3 1.6 979.2 10.3
2014-Oct-04 23:20N 52°39' E 160°43'3 0.7 983.1 10.3
2014-Oct-04 19:20N 52°42' E 160°45'1 0.5 991.0 10.3
2014-Oct-04 17:20N 52°43' E 160°45'1 0.5 995.0 10.4
2014-Oct-04 15:20N 52°44' E 160°46'2 0.4 999.5 10.4
2014-Oct-04 11:20N 52°45' E 160°48'3 0.9 1006.1 10.4
2014-Oct-04 08:20N 52°47' E 160°50'0 0.0 1010.0 10.4
2014-Oct-04 07:20N 52°47' E 160°50'4 1.0 1010.8 10.4
2014-Oct-04 03:20N 52°51' E 160°50'0 0.3 1014.8 10.4
2014-Oct-04 02:20N 52°52' E 160°50'1 1.3 1015.7 10.4
2014-Oct-04 01:20N 52°53' E 160°50'   1016.8 10.4

Dump ship's entire track history